createdAt,value
2022-08-14T00:01:58.230Z,16.70
2022-08-14T00:04:34.436Z,16.60
2022-08-14T00:07:10.802Z,16.50
2022-08-14T00:09:55.320Z,16.20
2022-08-14T00:12:33.134Z,16.00
2022-08-14T00:15:03.060Z,15.70
2022-08-14T00:17:31.306Z,15.30
2022-08-14T00:20:08.814Z,15.10
2022-08-14T00:22:57.201Z,15.10
2022-08-14T00:25:25.296Z,15.10
2022-08-14T00:28:15.539Z,14.90
2022-08-14T00:30:46.732Z,14.70
2022-08-14T00:33:16.580Z,14.50
2022-08-14T00:36:35.628Z,14.40
2022-08-14T00:38:35.136Z,14.30
2022-08-14T00:41:05.032Z,14.20
2022-08-14T00:43:33.107Z,14.10
2022-08-14T00:46:05.336Z,14.10
2022-08-14T00:48:38.311Z,14.10
2022-08-14T00:51:10.967Z,14.00
2022-08-14T00:53:39.878Z,14.00
2022-08-14T00:56:11.198Z,14.00
2022-08-14T00:58:48.245Z,13.90
2022-08-14T01:01:19.042Z,13.90
2022-08-14T01:03:52.746Z,13.80
2022-08-14T01:06:23.160Z,13.90
2022-08-14T01:08:59.580Z,13.90
2022-08-14T01:11:35.600Z,13.80
2022-08-14T01:14:25.353Z,13.60
2022-08-14T01:16:55.668Z,13.60
2022-08-14T01:19:41.655Z,13.50
2022-08-14T01:22:13.179Z,13.40
2022-08-14T01:24:47.185Z,13.20
2022-08-14T01:27:18.614Z,13.10
2022-08-14T01:29:59.259Z,13.00
2022-08-14T01:32:37.444Z,12.90
2022-08-14T01:35:17.701Z,12.90
2022-08-14T01:37:54.779Z,12.90
2022-08-14T01:40:25.701Z,13.10
2022-08-14T01:43:02.866Z,13.20
2022-08-14T01:45:31.461Z,13.30
2022-08-14T01:48:13.986Z,13.40
2022-08-14T01:50:42.790Z,13.40
2022-08-14T01:53:14.419Z,13.30
2022-08-14T01:55:42.756Z,13.30
2022-08-14T01:58:20.361Z,13.30
2022-08-14T02:00:54.223Z,13.40
2022-08-14T02:03:23.403Z,13.50
2022-08-14T02:05:51.561Z,13.70
2022-08-14T02:08:22.449Z,13.80
2022-08-14T02:11:18.886Z,13.90
2022-08-14T02:13:50.481Z,14.00
2022-08-14T02:16:22.322Z,14.00
2022-08-14T02:18:51.225Z,14.00
2022-08-14T02:21:23.077Z,14.00
2022-08-14T02:23:55.053Z,13.90
2022-08-14T02:26:29.214Z,13.80
2022-08-14T02:29:00.912Z,13.70
2022-08-14T02:31:42.560Z,13.70
2022-08-14T02:34:22.334Z,13.80
2022-08-14T02:37:03.693Z,13.70
2022-08-14T02:39:39.104Z,13.50
2022-08-14T02:42:12.787Z,13.20
2022-08-14T02:44:42.099Z,12.90
2022-08-14T02:47:14.905Z,12.80
2022-08-14T02:49:50.456Z,12.60
2022-08-14T02:52:56.024Z,12.50
2022-08-14T02:55:12.222Z,12.50
2022-08-14T02:57:51.805Z,12.40
2022-08-14T03:00:21.558Z,12.30
2022-08-14T03:02:58.951Z,12.20
2022-08-14T03:05:32.828Z,12.10
2022-08-14T03:08:08.633Z,12.00
2022-08-14T03:10:42.058Z,11.90
2022-08-14T03:13:21.276Z,11.80
2022-08-14T03:15:55.940Z,11.70
2022-08-14T03:18:31.772Z,11.60
2022-08-14T03:21:02.560Z,11.60
2022-08-14T03:23:34.079Z,11.50
2022-08-14T03:26:07.858Z,11.50
2022-08-14T03:28:36.798Z,11.50
2022-08-14T03:31:13.401Z,11.40
2022-08-14T03:33:42.067Z,11.50
2022-08-14T03:37:37.346Z,11.40
2022-08-14T03:39:15.030Z,11.50
2022-08-14T03:41:52.342Z,11.60
2022-08-14T03:45:18.932Z,11.70
2022-08-14T03:47:08.547Z,11.60
2022-08-14T03:49:42.132Z,11.50
2022-08-14T03:52:27.796Z,11.40
2022-08-14T03:54:59.670Z,11.30
2022-08-14T03:57:32.353Z,11.30
2022-08-14T04:00:04.013Z,11.30
2022-08-14T04:02:37.344Z,11.20
2022-08-14T04:05:11.895Z,11.10
2022-08-14T04:07:49.482Z,11.00
2022-08-14T04:10:31.584Z,11.00
2022-08-14T04:13:03.091Z,10.90
2022-08-14T04:15:32.038Z,11.00
2022-08-14T04:18:19.822Z,11.10
2022-08-14T04:20:54.916Z,11.20
2022-08-14T04:23:29.858Z,11.40
2022-08-14T04:26:02.822Z,11.40
2022-08-14T04:29:07.530Z,11.50
2022-08-14T04:31:24.744Z,11.60
2022-08-14T04:34:17.265Z,11.70
2022-08-14T04:37:07.293Z,11.80
2022-08-14T04:39:57.157Z,12.00
2022-08-14T04:42:47.281Z,12.50
2022-08-14T04:45:23.221Z,13.40
2022-08-14T04:48:10.152Z,14.00
2022-08-14T04:50:44.609Z,14.20
2022-08-14T04:53:14.884Z,14.20
2022-08-14T04:55:46.009Z,14.10
2022-08-14T04:58:21.939Z,14.20
2022-08-14T05:01:03.035Z,14.80
2022-08-14T05:03:33.257Z,15.20
2022-08-14T05:06:03.190Z,15.40
2022-08-14T05:08:57.352Z,15.50
2022-08-14T05:11:20.511Z,15.20
2022-08-14T05:16:38.831Z,15.60
2022-08-14T05:19:18.445Z,15.60
2022-08-14T05:22:01.343Z,15.50
2022-08-14T05:24:44.382Z,15.60
2022-08-14T05:27:12.227Z,15.70
2022-08-14T05:29:40.877Z,15.90
2022-08-14T05:32:13.452Z,15.70
2022-08-14T05:34:45.562Z,15.20
2022-08-14T05:37:15.514Z,15.20
2022-08-14T05:39:43.843Z,15.50
2022-08-14T05:42:21.534Z,15.50
2022-08-14T05:44:55.459Z,15.70
2022-08-14T05:47:29.049Z,15.50
2022-08-14T05:50:02.241Z,15.30
2022-08-14T05:52:39.070Z,15.30
2022-08-14T05:55:09.464Z,15.30
2022-08-14T05:57:47.916Z,15.60
2022-08-14T06:00:28.988Z,16.20
2022-08-14T06:03:04.154Z,16.20
2022-08-14T06:05:38.592Z,16.40
2022-08-14T06:08:31.186Z,16.90
2022-08-14T06:11:05.549Z,16.70
2022-08-14T06:13:45.344Z,16.90
2022-08-14T06:16:17.861Z,17.50
2022-08-14T06:18:52.583Z,17.90
2022-08-14T06:21:21.562Z,17.90
2022-08-14T06:23:50.527Z,18.30
2022-08-14T06:26:20.795Z,18.20
2022-08-14T06:28:52.140Z,18.80
2022-08-14T06:31:20.684Z,19.20
2022-08-14T06:35:04.398Z,19.10
2022-08-14T06:36:39.512Z,19.60
2022-08-14T06:39:08.174Z,20.20
2022-08-14T06:41:56.762Z,20.30
2022-08-14T06:44:32.775Z,20.50
2022-08-14T06:47:01.626Z,20.90
2022-08-14T06:49:31.026Z,20.70
2022-08-14T06:52:08.452Z,20.40
2022-08-14T06:54:36.627Z,20.70
2022-08-14T06:57:04.605Z,21.30
2022-08-14T06:59:33.813Z,21.50
2022-08-14T07:02:19.310Z,21.20
2022-08-14T07:05:06.289Z,21.60
2022-08-14T07:07:39.257Z,21.60
2022-08-14T07:10:08.135Z,22.10
2022-08-14T07:13:00.900Z,22.20
2022-08-14T07:15:33.759Z,21.60
2022-08-14T07:18:03.563Z,22.20
2022-08-14T07:20:33.079Z,22.30
2022-08-14T07:23:07.817Z,22.00
2022-08-14T07:25:37.444Z,21.30
2022-08-14T07:28:13.015Z,21.50
2022-08-14T07:30:51.616Z,22.10
2022-08-14T07:33:29.134Z,22.60
2022-08-14T07:36:00.574Z,22.90
2022-08-14T07:38:35.436Z,22.90
2022-08-14T07:41:11.631Z,22.70
2022-08-14T07:43:43.977Z,22.70
2022-08-14T07:46:14.929Z,22.60
2022-08-14T07:48:49.340Z,22.60
2022-08-14T07:51:22.394Z,22.90
2022-08-14T07:53:57.210Z,23.60
2022-08-14T07:56:44.250Z,23.80
2022-08-14T07:59:16.775Z,24.00
2022-08-14T08:01:48.116Z,23.70
2022-08-14T08:04:24.139Z,24.70
2022-08-14T08:06:54.823Z,25.30
2022-08-14T08:09:31.727Z,25.00
2022-08-14T08:12:01.760Z,26.10
2022-08-14T08:14:34.499Z,26.50
2022-08-14T08:17:24.349Z,26.20
2022-08-14T08:19:52.286Z,25.80
2022-08-14T08:22:23.742Z,26.30
2022-08-14T08:24:55.438Z,26.50
2022-08-14T08:27:25.769Z,26.30
2022-08-14T08:30:03.347Z,26.90
2022-08-14T08:32:40.262Z,26.90
2022-08-14T08:35:11.603Z,26.80
2022-08-14T08:37:43.605Z,27.20
2022-08-14T08:40:20.830Z,26.60
2022-08-14T08:42:53.214Z,26.80
2022-08-14T08:45:23.695Z,27.40
2022-08-14T08:47:55.498Z,27.20
2022-08-14T08:50:31.298Z,26.50
2022-08-14T08:53:02.129Z,26.50
2022-08-14T08:55:34.187Z,27.00
2022-08-14T08:58:05.555Z,27.00
2022-08-14T09:00:44.109Z,26.90
2022-08-14T09:03:20.484Z,27.40
2022-08-14T09:05:54.364Z,27.50
2022-08-14T09:08:31.719Z,27.60
2022-08-14T09:11:02.811Z,27.30
2022-08-14T09:13:48.367Z,27.20
2022-08-14T09:16:20.620Z,27.30
2022-08-14T09:18:49.976Z,27.10
2022-08-14T09:21:24.260Z,27.30
2022-08-14T09:24:28.867Z,27.20
2022-08-14T09:26:49.349Z,27.20
2022-08-14T09:29:19.884Z,27.70
2022-08-14T09:31:57.035Z,28.10
2022-08-14T09:34:58.161Z,28.50
2022-08-14T09:37:44.268Z,28.50
2022-08-14T09:40:25.053Z,28.40
2022-08-14T09:43:07.526Z,28.60
2022-08-14T09:45:52.540Z,28.60
2022-08-14T09:48:30.141Z,29.00
2022-08-14T09:54:13.485Z,28.20
2022-08-14T09:56:30.314Z,28.70
2022-08-14T09:59:10.662Z,28.90
2022-08-14T10:01:40.388Z,29.20
2022-08-14T10:04:36.681Z,29.50
2022-08-14T10:07:10.076Z,29.00
2022-08-14T10:09:59.503Z,28.70
2022-08-14T10:12:44.865Z,28.10
2022-08-14T10:15:18.450Z,28.00
2022-08-14T10:17:46.778Z,28.10
2022-08-14T10:20:40.648Z,27.50
2022-08-14T10:23:22.995Z,28.10
2022-08-14T10:25:53.106Z,28.10
2022-08-14T10:28:39.634Z,28.40
2022-08-14T10:31:25.514Z,29.00
2022-08-14T10:34:02.001Z,29.10
2022-08-14T10:36:34.992Z,29.00
2022-08-14T10:39:07.809Z,28.40
2022-08-14T10:41:46.439Z,29.30
2022-08-14T10:44:21.413Z,29.70
2022-08-14T10:47:41.510Z,30.00
2022-08-14T10:49:49.917Z,30.00
2022-08-14T10:52:24.161Z,29.90
2022-08-14T10:54:56.308Z,28.90
2022-08-14T10:57:26.712Z,29.10
2022-08-14T10:59:57.382Z,29.40
2022-08-14T11:02:45.055Z,29.70
2022-08-14T11:05:20.107Z,29.80
2022-08-14T11:07:59.743Z,30.40
2022-08-14T11:10:43.096Z,30.30
2022-08-14T11:13:12.134Z,29.80
2022-08-14T11:15:41.545Z,29.80
2022-08-14T11:18:12.067Z,30.20
2022-08-14T11:20:54.163Z,30.10
2022-08-14T11:23:37.774Z,30.20
2022-08-14T11:26:10.270Z,30.10
2022-08-14T11:28:47.859Z,30.20
2022-08-14T11:31:21.945Z,30.30
2022-08-14T11:33:51.235Z,30.10
2022-08-14T11:36:23.466Z,30.30
2022-08-14T11:38:51.476Z,29.80
2022-08-14T11:41:21.925Z,30.00
2022-08-14T11:43:58.550Z,29.10
2022-08-14T11:46:30.600Z,29.20
2022-08-14T11:49:06.785Z,29.60
2022-08-14T11:51:52.935Z,29.80
2022-08-14T11:54:34.351Z,30.10
2022-08-14T11:57:04.724Z,30.50
2022-08-14T11:59:33.833Z,30.70
2022-08-14T12:03:01.546Z,30.40
2022-08-14T12:05:00.145Z,30.60
2022-08-14T12:07:28.269Z,30.40
2022-08-14T12:09:58.567Z,30.60
2022-08-14T12:12:35.128Z,30.50
2022-08-14T12:15:05.329Z,30.10
2022-08-14T12:17:50.425Z,29.90
2022-08-14T12:20:29.910Z,30.50
2022-08-14T12:23:01.694Z,30.50
2022-08-14T12:25:30.139Z,30.40
2022-08-14T12:28:08.410Z,30.70
2022-08-14T12:30:39.585Z,30.60
2022-08-14T12:33:24.106Z,30.60
2022-08-14T12:35:56.407Z,30.50
2022-08-14T12:38:38.206Z,30.50
2022-08-14T12:41:20.498Z,30.60
2022-08-14T12:43:53.453Z,30.10
2022-08-14T12:46:30.326Z,29.80
2022-08-14T12:49:02.380Z,30.00
2022-08-14T12:51:31.372Z,29.40
2022-08-14T12:54:00.653Z,29.20
2022-08-14T12:56:33.708Z,29.70
2022-08-14T12:59:03.423Z,29.50
2022-08-14T13:01:59.314Z,29.80
2022-08-14T13:04:23.175Z,30.30
2022-08-14T13:06:52.715Z,29.90
2022-08-14T13:09:23.325Z,29.70
2022-08-14T13:11:59.203Z,30.20
2022-08-14T13:14:44.861Z,30.50
2022-08-14T13:17:13.575Z,30.70
2022-08-14T13:19:45.636Z,30.90
2022-08-14T13:22:32.364Z,31.10
2022-08-14T13:25:05.575Z,31.00
2022-08-14T13:27:39.412Z,30.60
2022-08-14T13:30:21.239Z,30.80
2022-08-14T13:32:53.023Z,30.70
2022-08-14T13:35:23.079Z,30.70
2022-08-14T13:37:52.365Z,30.50
2022-08-14T13:40:25.998Z,30.50
2022-08-14T13:42:57.065Z,29.90
2022-08-14T13:45:33.833Z,29.30
2022-08-14T13:48:28.437Z,29.40
2022-08-14T13:51:07.815Z,29.70
2022-08-14T13:54:06.928Z,29.90
2022-08-14T13:56:37.882Z,29.90
2022-08-14T13:59:07.374Z,30.20
2022-08-14T14:01:42.930Z,30.10
2022-08-14T14:04:18.913Z,30.10
2022-08-14T14:06:51.957Z,30.00
2022-08-14T14:09:26.948Z,30.10
2022-08-14T14:12:01.359Z,29.90
2022-08-14T14:14:50.898Z,29.80
2022-08-14T14:17:24.436Z,29.90
2022-08-14T14:19:52.722Z,30.10
2022-08-14T14:22:34.366Z,29.90
2022-08-14T14:25:14.420Z,29.80
2022-08-14T14:27:51.129Z,30.10
2022-08-14T14:30:52.784Z,29.80
2022-08-14T14:33:42.545Z,30.00
2022-08-14T14:36:05.196Z,30.00
2022-08-14T14:38:35.123Z,30.30
2022-08-14T14:41:05.685Z,30.40
2022-08-14T14:43:44.752Z,30.30
2022-08-14T14:46:15.685Z,30.30
2022-08-14T14:48:53.967Z,30.10
2022-08-14T14:51:22.837Z,30.20
2022-08-14T14:53:52.381Z,30.30
2022-08-14T14:56:48.005Z,30.10
2022-08-14T14:59:09.476Z,29.90
2022-08-14T15:01:39.601Z,30.00
2022-08-14T15:04:12.210Z,30.30
2022-08-14T15:06:49.089Z,30.60
2022-08-14T15:09:18.786Z,30.70
2022-08-14T15:11:48.244Z,30.80
2022-08-14T15:14:54.975Z,30.80
2022-08-14T15:17:06.456Z,30.80
2022-08-14T15:19:34.826Z,30.70
2022-08-14T15:22:02.787Z,30.30
2022-08-14T15:24:32.609Z,30.00
2022-08-14T15:27:06.684Z,29.90
2022-08-14T15:29:43.061Z,29.80
2022-08-14T15:32:11.426Z,29.70
2022-08-14T15:34:45.753Z,29.50
2022-08-14T15:37:22.107Z,29.30
2022-08-14T15:39:52.412Z,29.00
2022-08-14T15:42:22.931Z,28.90
2022-08-14T15:44:58.482Z,28.80
2022-08-14T15:47:31.450Z,28.70
2022-08-14T15:50:00.809Z,28.40
2022-08-14T15:52:32.789Z,28.20
2022-08-14T15:55:06.405Z,28.10
2022-08-14T15:57:34.836Z,28.30
2022-08-14T16:00:43.463Z,28.40
2022-08-14T16:03:12.719Z,28.30
2022-08-14T16:05:43.552Z,28.40
2022-08-14T16:08:28.869Z,28.60
2022-08-14T16:11:00.338Z,28.70
2022-08-14T16:13:41.372Z,28.60
2022-08-14T16:16:47.433Z,28.40
2022-08-14T16:19:09.822Z,28.70
2022-08-14T16:21:40.830Z,28.60
2022-08-14T16:24:32.407Z,28.60
2022-08-14T16:27:03.442Z,28.50
2022-08-14T16:29:34.768Z,28.60
2022-08-14T16:32:35.725Z,28.70
2022-08-14T16:34:54.920Z,28.80
2022-08-14T16:37:31.100Z,28.60
2022-08-14T16:40:02.620Z,28.50
2022-08-14T16:42:39.482Z,28.70
2022-08-14T16:45:24.613Z,28.50
2022-08-14T16:47:52.435Z,28.50
2022-08-14T16:50:40.384Z,28.40
2022-08-14T16:53:09.702Z,28.30
2022-08-14T16:55:53.843Z,28.20
2022-08-14T16:58:30.405Z,28.10
2022-08-14T17:01:22.661Z,28.10
2022-08-14T17:04:03.375Z,27.80
2022-08-14T17:06:42.963Z,27.80
2022-08-14T17:09:43.342Z,27.70
2022-08-14T17:12:28.669Z,27.80
2022-08-14T17:15:10.089Z,27.60
2022-08-14T17:17:50.069Z,27.60
2022-08-14T17:20:53.454Z,27.50
2022-08-14T17:23:15.022Z,27.40
2022-08-14T17:25:49.458Z,27.20
2022-08-14T17:31:10.337Z,27.20
2022-08-14T17:33:44.611Z,27.20
2022-08-14T17:36:22.817Z,27.00
2022-08-14T17:38:59.896Z,27.00
2022-08-14T17:41:36.018Z,27.00
2022-08-14T17:44:22.056Z,27.00
2022-08-14T17:47:05.522Z,26.90
2022-08-14T17:49:37.467Z,26.80
2022-08-14T17:52:17.167Z,26.80
2022-08-14T17:54:52.945Z,26.70
2022-08-14T17:57:28.356Z,26.40
2022-08-14T17:59:59.080Z,26.30
2022-08-14T18:02:31.057Z,26.10
2022-08-14T18:05:03.049Z,26.00
2022-08-14T18:07:59.341Z,25.90
2022-08-14T18:10:51.882Z,25.80
2022-08-14T18:13:10.557Z,25.70
2022-08-14T18:15:41.340Z,25.60
2022-08-14T18:18:12.958Z,25.50
2022-08-14T18:21:42.678Z,25.30
2022-08-14T18:23:31.875Z,25.10
2022-08-14T18:26:00.596Z,25.00
2022-08-14T18:28:50.866Z,24.90
2022-08-14T18:31:43.416Z,24.80
2022-08-14T18:34:32.177Z,24.70
2022-08-14T18:37:14.230Z,24.60
2022-08-14T18:40:02.267Z,24.50
2022-08-14T18:42:44.117Z,24.40
2022-08-14T18:45:16.080Z,24.20
2022-08-14T18:48:28.683Z,24.10
2022-08-14T18:51:45.740Z,24.00
2022-08-14T18:54:29.932Z,23.80
2022-08-14T18:57:03.206Z,23.70
2022-08-14T18:59:42.300Z,23.60
2022-08-14T19:02:44.045Z,23.60
2022-08-14T19:05:13.400Z,23.50
2022-08-14T19:07:43.763Z,23.40
2022-08-14T19:10:37.686Z,23.40
2022-08-14T19:13:13.102Z,23.30
2022-08-14T19:15:43.807Z,23.20
2022-08-14T19:18:25.941Z,23.10
2022-08-14T19:20:58.410Z,23.10
2022-08-14T19:23:40.576Z,23.00
2022-08-14T19:26:34.731Z,22.90
2022-08-14T19:29:38.365Z,22.90
2022-08-14T19:32:39.357Z,22.90
2022-08-14T19:35:49.942Z,22.80
2022-08-14T19:38:48.118Z,22.80
2022-08-14T19:41:17.596Z,22.80
2022-08-14T19:43:55.276Z,22.70
2022-08-14T19:46:38.741Z,22.70
2022-08-14T19:49:14.649Z,22.60
2022-08-14T19:51:51.151Z,22.60
2022-08-14T19:54:29.717Z,22.50
2022-08-14T19:56:58.877Z,22.40
2022-08-14T19:59:27.795Z,22.40
2022-08-14T20:02:24.725Z,22.40
2022-08-14T20:04:59.298Z,22.40
2022-08-14T20:07:59.733Z,22.40
2022-08-14T20:11:06.404Z,22.40
2022-08-14T20:13:32.782Z,22.30
2022-08-14T20:16:12.359Z,22.30
2022-08-14T20:18:51.739Z,22.20
2022-08-14T20:21:19.907Z,22.10
2022-08-14T20:23:49.463Z,22.10
2022-08-14T20:26:31.781Z,22.00
2022-08-14T20:29:07.372Z,22.00
2022-08-14T20:31:38.558Z,22.00
2022-08-14T20:34:19.099Z,22.00
2022-08-14T20:37:02.278Z,22.00
2022-08-14T20:39:34.391Z,22.00
2022-08-14T20:42:29.744Z,21.90
2022-08-14T20:45:18.853Z,22.00
2022-08-14T20:47:58.440Z,21.90
2022-08-14T20:50:30.270Z,21.90
2022-08-14T20:52:58.590Z,21.80
2022-08-14T20:55:29.888Z,21.90
2022-08-14T20:58:09.550Z,21.80
2022-08-14T21:00:51.779Z,21.80
2022-08-14T21:03:57.008Z,21.80
2022-08-14T21:06:29.508Z,21.80
2022-08-14T21:09:02.169Z,21.80
2022-08-14T21:11:31.138Z,21.80
2022-08-14T21:14:19.435Z,21.80
2022-08-14T21:16:58.497Z,21.80
2022-08-14T21:19:29.320Z,21.70
2022-08-14T21:22:01.426Z,21.60
2022-08-14T21:24:39.664Z,21.50
2022-08-14T21:27:20.441Z,21.30
2022-08-14T21:29:55.607Z,21.20
2022-08-14T21:32:34.911Z,20.80
2022-08-14T21:35:08.165Z,20.50
2022-08-14T21:37:46.107Z,20.30
2022-08-14T21:40:39.793Z,20.10
2022-08-14T21:43:06.057Z,19.90
2022-08-14T21:45:53.327Z,19.80
2022-08-14T21:48:25.216Z,19.70
2022-08-14T21:51:02.057Z,19.70
2022-08-14T21:53:58.380Z,19.70
2022-08-14T21:56:38.731Z,19.70
2022-08-14T21:59:10.088Z,19.60
2022-08-14T22:02:01.195Z,19.50
2022-08-14T22:04:33.503Z,19.40
2022-08-14T22:07:05.795Z,19.20
2022-08-14T22:09:36.539Z,19.00
2022-08-14T22:12:07.182Z,18.80
2022-08-14T22:14:43.385Z,18.70
2022-08-14T22:17:17.152Z,18.70
2022-08-14T22:19:48.820Z,18.70
2022-08-14T22:22:23.834Z,18.70
2022-08-14T22:25:00.405Z,18.80
2022-08-14T22:27:32.155Z,18.80
2022-08-14T22:30:01.274Z,18.80
2022-08-14T22:32:56.118Z,18.90
2022-08-14T22:35:18.636Z,18.90
2022-08-14T22:38:34.879Z,18.90
2022-08-14T22:41:00.650Z,18.90
2022-08-14T22:43:32.712Z,19.00
2022-08-14T22:46:03.274Z,19.00
2022-08-14T22:48:42.161Z,19.00
2022-08-14T22:51:10.319Z,19.00
2022-08-14T22:53:43.750Z,19.00
2022-08-14T22:56:20.652Z,19.00
2022-08-14T22:58:53.984Z,18.90
2022-08-14T23:01:56.867Z,19.00
2022-08-14T23:04:34.347Z,19.00
2022-08-14T23:07:05.255Z,19.00
2022-08-14T23:09:38.507Z,19.00
2022-08-14T23:12:27.409Z,19.00
2022-08-14T23:14:57.253Z,18.80
2022-08-14T23:17:26.475Z,18.60
2022-08-14T23:19:56.319Z,18.50
2022-08-14T23:22:26.130Z,18.50
2022-08-14T23:24:57.846Z,18.50
2022-08-14T23:27:31.972Z,18.40
2022-08-14T23:30:31.809Z,18.40
2022-08-14T23:33:03.264Z,18.20
2022-08-14T23:35:33.057Z,18.30
2022-08-14T23:38:02.783Z,18.20
2022-08-14T23:40:32.126Z,18.20
2022-08-14T23:43:03.089Z,18.20
2022-08-14T23:45:36.749Z,18.20
2022-08-14T23:48:09.916Z,18.20
2022-08-14T23:50:41.422Z,18.20
2022-08-14T23:53:28.623Z,18.30
2022-08-14T23:56:09.563Z,18.20
2022-08-14T23:58:40.386Z,18.20
